createdAt,value
2022-11-24T00:00:12.604Z,6.60
2022-11-24T00:01:17.708Z,7.45
2022-11-24T00:02:19.651Z,7.07
2022-11-24T00:03:21.621Z,7.07
2022-11-24T00:04:23.597Z,7.35
2022-11-24T00:05:25.449Z,6.95
2022-11-24T00:06:29.039Z,6.90
2022-11-24T00:07:31.002Z,7.22
2022-11-24T00:08:33.936Z,6.90
2022-11-24T00:09:35.745Z,7.32
2022-11-24T00:10:37.616Z,6.60
2022-11-24T00:11:39.843Z,6.43
2022-11-24T00:12:41.650Z,7.28
2022-11-24T00:13:44.089Z,6.90
2022-11-24T00:14:47.103Z,7.05
2022-11-24T00:15:49.053Z,7.55
2022-11-24T00:16:50.958Z,6.68
2022-11-24T00:17:53.112Z,7.05
2022-11-24T00:18:56.824Z,6.83
2022-11-24T00:19:58.701Z,6.95
2022-11-24T00:21:00.822Z,6.68
2022-11-24T00:22:02.649Z,6.65
2022-11-24T00:23:04.500Z,6.65
2022-11-24T00:24:06.906Z,6.53
2022-11-24T00:25:08.868Z,7.00
2022-11-24T00:26:13.552Z,7.20
2022-11-24T00:27:15.378Z,5.90
2022-11-24T00:28:17.214Z,6.50
2022-11-24T00:29:19.069Z,7.83
2022-11-24T00:30:20.944Z,6.97
2022-11-24T00:31:34.413Z,6.85
2022-11-24T00:32:36.283Z,7.10
2022-11-24T00:33:38.099Z,7.45
2022-11-24T00:34:39.957Z,7.57
2022-11-24T00:35:41.801Z,7.03
2022-11-24T00:36:43.892Z,7.10
2022-11-24T00:37:45.707Z,7.38
2022-11-24T00:38:48.011Z,6.93
2022-11-24T00:39:49.923Z,7.03
2022-11-24T00:40:52.251Z,7.10
2022-11-24T00:41:54.049Z,6.72
2022-11-24T00:42:55.881Z,7.60
2022-11-24T00:43:58.236Z,7.82
2022-11-24T00:45:00.050Z,8.15
2022-11-24T00:46:02.196Z,7.63
2022-11-24T00:47:04.120Z,7.38
2022-11-24T00:48:06.205Z,7.70
2022-11-24T00:49:08.027Z,7.60
2022-11-24T00:50:10.190Z,7.70
2022-11-24T00:51:13.749Z,6.93
2022-11-24T00:52:15.557Z,6.60
2022-11-24T00:53:17.392Z,7.07
2022-11-24T00:54:19.281Z,7.35
2022-11-24T00:55:21.542Z,7.90
2022-11-24T00:56:24.575Z,7.47
2022-11-24T00:57:26.398Z,7.88
2022-11-24T00:58:28.227Z,8.40
2022-11-24T00:59:32.545Z,7.38
2022-11-24T01:00:34.362Z,7.67
2022-11-24T01:01:36.463Z,8.10
2022-11-24T01:02:38.372Z,7.82
2022-11-24T01:03:40.338Z,7.47
2022-11-24T01:04:42.155Z,7.55
2022-11-24T01:05:44.039Z,8.27
2022-11-24T01:06:45.876Z,8.20
2022-11-24T01:07:47.726Z,7.95
2022-11-24T01:08:50.065Z,7.75
2022-11-24T01:09:51.882Z,8.20
2022-11-24T01:10:53.691Z,7.67
2022-11-24T01:12:01.289Z,8.25
2022-11-24T01:13:03.384Z,7.15
2022-11-24T01:14:05.246Z,8.00
2022-11-24T01:15:07.474Z,7.97
2022-11-24T01:16:32.179Z,7.72
2022-11-24T01:17:34.000Z,8.15
2022-11-24T01:18:35.824Z,7.68
2022-11-24T01:19:37.691Z,8.18
2022-11-24T01:20:39.504Z,8.18
2022-11-24T01:21:41.341Z,7.43
2022-11-24T01:22:43.234Z,7.72
2022-11-24T01:23:45.123Z,8.02
2022-11-24T01:24:46.936Z,7.72
2022-11-24T01:25:48.745Z,7.78
2022-11-24T01:26:50.598Z,8.35
2022-11-24T01:27:52.724Z,7.38
2022-11-24T01:28:58.634Z,7.30
2022-11-24T01:30:00.706Z,7.55
2022-11-24T01:31:06.238Z,7.57
2022-11-24T01:32:08.213Z,7.90
2022-11-24T01:33:10.046Z,7.22
2022-11-24T01:34:13.015Z,6.97
2022-11-24T01:35:15.013Z,6.80
2022-11-24T01:36:17.379Z,7.25
2022-11-24T01:37:19.212Z,6.30
2022-11-24T01:38:21.516Z,6.97
2022-11-24T01:39:23.432Z,6.85
2022-11-24T01:40:25.246Z,6.90
2022-11-24T01:41:27.393Z,6.70
2022-11-24T01:42:46.386Z,5.77
2022-11-24T01:43:49.119Z,6.22
2022-11-24T01:45:29.124Z,6.22
2022-11-24T01:46:48.105Z,5.78
2022-11-24T01:47:49.994Z,6.00
2022-11-24T01:49:18.012Z,6.22
2022-11-24T01:50:20.299Z,6.00
2022-11-24T01:51:29.392Z,6.05
2022-11-24T01:52:45.925Z,6.13
2022-11-24T01:53:59.035Z,6.65
2022-11-24T01:55:06.289Z,6.10
2022-11-24T01:56:08.882Z,6.05
2022-11-24T01:57:18.355Z,6.18
2022-11-24T01:58:24.237Z,6.57
2022-11-24T01:59:26.696Z,6.25
2022-11-24T02:00:28.589Z,6.10
2022-11-24T02:01:32.195Z,6.18
2022-11-24T02:02:34.375Z,6.32
2022-11-24T02:03:38.902Z,5.80
2022-11-24T02:04:41.821Z,5.63
2022-11-24T02:05:56.088Z,6.10
2022-11-24T02:07:01.583Z,6.40
2022-11-24T02:08:04.067Z,6.30
2022-11-24T02:09:19.235Z,6.13
2022-11-24T02:10:21.924Z,5.65
2022-11-24T02:11:26.507Z,6.07
2022-11-24T02:12:29.202Z,5.57
2022-11-24T02:13:33.365Z,5.95
2022-11-24T02:14:38.151Z,5.60
2022-11-24T02:15:40.017Z,5.60
2022-11-24T02:16:44.248Z,5.97
2022-11-24T02:17:46.097Z,5.78
2022-11-24T02:18:48.100Z,5.35
2022-11-24T02:19:59.129Z,5.53
2022-11-24T02:21:01.671Z,5.65
2022-11-24T02:22:04.685Z,6.07
2022-11-24T02:23:24.354Z,5.43
2022-11-24T02:24:37.085Z,5.63
2022-11-24T02:25:45.091Z,5.45
2022-11-24T02:26:49.585Z,5.63
2022-11-24T02:27:54.211Z,5.77
2022-11-24T02:28:56.895Z,5.43
2022-11-24T02:29:59.373Z,5.70
2022-11-24T02:31:02.034Z,6.07
2022-11-24T02:32:06.541Z,5.63
2022-11-24T02:33:09.921Z,6.18
2022-11-24T02:34:11.786Z,6.95
2022-11-24T02:35:15.170Z,5.95
2022-11-24T02:36:17.038Z,7.05
2022-11-24T02:37:18.855Z,6.95
2022-11-24T02:38:30.320Z,7.20
2022-11-24T02:39:32.191Z,7.28
2022-11-24T02:40:34.093Z,6.88
2022-11-24T02:41:36.314Z,7.05
2022-11-24T02:42:43.992Z,6.72
2022-11-24T02:43:58.564Z,6.60
2022-11-24T02:45:01.574Z,5.82
2022-11-24T02:46:03.828Z,6.65
2022-11-24T02:47:09.169Z,6.65
2022-11-24T02:48:10.995Z,7.05
2022-11-24T02:49:12.893Z,7.33
2022-11-24T02:50:14.807Z,7.32
2022-11-24T02:51:16.815Z,7.10
2022-11-24T02:52:19.705Z,6.93
2022-11-24T02:53:21.555Z,6.57
2022-11-24T02:54:23.479Z,7.10
2022-11-24T02:55:25.531Z,6.53
2022-11-24T02:56:27.748Z,7.05
2022-11-24T02:57:29.682Z,6.95
2022-11-24T02:58:31.605Z,6.35
2022-11-24T02:59:33.530Z,7.03
2022-11-24T03:00:35.409Z,6.88
2022-11-24T03:01:37.278Z,6.70
2022-11-24T03:02:39.201Z,6.93
2022-11-24T03:03:41.054Z,7.68
2022-11-24T03:04:44.627Z,7.53
2022-11-24T03:05:46.476Z,6.90
2022-11-24T03:06:48.361Z,7.32
2022-11-24T03:07:50.269Z,7.25
2022-11-24T03:08:52.173Z,6.50
2022-11-24T03:09:54.068Z,6.33
2022-11-24T03:10:56.069Z,7.97
2022-11-24T03:11:57.935Z,8.02
2022-11-24T03:12:59.731Z,7.28
2022-11-24T03:14:02.035Z,8.48
2022-11-24T03:15:05.418Z,8.30
2022-11-24T03:16:10.457Z,7.10
2022-11-24T03:17:12.832Z,7.18
2022-11-24T03:18:14.646Z,7.88
2022-11-24T03:19:16.501Z,7.60
2022-11-24T03:20:18.872Z,7.27
2022-11-24T03:21:20.830Z,7.03
2022-11-24T03:22:22.685Z,7.28
2022-11-24T03:23:24.500Z,7.57
2022-11-24T03:24:26.383Z,7.28
2022-11-24T03:25:28.290Z,7.03
2022-11-24T03:26:30.206Z,6.22
2022-11-24T03:27:32.194Z,6.70
2022-11-24T03:28:34.022Z,6.25
2022-11-24T03:29:35.933Z,6.45
2022-11-24T03:30:37.740Z,6.03
2022-11-24T03:31:39.733Z,5.95
2022-11-24T03:32:42.118Z,6.18
2022-11-24T03:33:43.974Z,6.90
2022-11-24T03:34:45.803Z,6.63
2022-11-24T03:35:47.661Z,7.43
2022-11-24T03:36:49.479Z,6.90
2022-11-24T03:37:51.391Z,6.47
2022-11-24T03:38:53.384Z,6.47
2022-11-24T03:39:55.262Z,6.47
2022-11-24T03:40:57.108Z,6.63
2022-11-24T03:41:58.962Z,7.30
2022-11-24T03:43:00.798Z,6.25
2022-11-24T03:44:02.814Z,6.53
2022-11-24T03:45:23.077Z,6.18
2022-11-24T03:46:26.872Z,6.05
2022-11-24T03:47:28.767Z,6.28
2022-11-24T03:48:31.012Z,6.88
2022-11-24T03:49:33.257Z,6.20
2022-11-24T03:50:35.271Z,6.22
2022-11-24T03:51:37.139Z,6.17
2022-11-24T03:52:39.017Z,5.68
2022-11-24T03:53:40.985Z,5.68
2022-11-24T03:54:42.956Z,6.03
2022-11-24T03:55:44.801Z,6.10
2022-11-24T03:56:47.499Z,5.85
2022-11-24T03:57:49.454Z,6.68
2022-11-24T03:58:51.298Z,6.60
2022-11-24T03:59:53.104Z,6.00
2022-11-24T04:00:56.101Z,5.50
2022-11-24T04:01:58.019Z,6.10
2022-11-24T04:02:59.966Z,5.63
2022-11-24T04:04:01.870Z,5.57
2022-11-24T04:05:04.061Z,5.85
2022-11-24T04:06:05.936Z,5.93
2022-11-24T04:07:07.785Z,6.50
2022-11-24T04:08:09.641Z,5.47
2022-11-24T04:09:11.658Z,6.20
2022-11-24T04:10:13.754Z,5.80
2022-11-24T04:11:35.598Z,5.85
2022-11-24T04:12:46.351Z,6.10
2022-11-24T04:13:48.262Z,6.00
2022-11-24T04:14:50.045Z,6.05
2022-11-24T04:15:52.553Z,6.70
2022-11-24T04:16:54.433Z,6.95
2022-11-24T04:17:57.050Z,6.40
2022-11-24T04:18:58.903Z,6.22
2022-11-24T04:20:00.667Z,6.60
2022-11-24T04:21:02.456Z,6.18
2022-11-24T04:22:04.262Z,6.90
2022-11-24T04:23:06.473Z,6.30
2022-11-24T04:24:08.374Z,6.97
2022-11-24T04:25:11.225Z,6.43
2022-11-24T04:26:13.705Z,6.32
2022-11-24T04:27:15.531Z,6.38
2022-11-24T04:28:17.376Z,6.13
2022-11-24T04:29:19.159Z,6.25
2022-11-24T04:30:22.553Z,6.35
2022-11-24T04:31:24.423Z,5.95
2022-11-24T04:32:26.258Z,6.30
2022-11-24T04:33:28.038Z,5.53
2022-11-24T04:34:29.800Z,6.32
2022-11-24T04:35:31.547Z,5.88
2022-11-24T04:36:33.349Z,5.88
2022-11-24T04:37:35.202Z,6.15
2022-11-24T04:39:24.143Z,6.28
2022-11-24T04:39:58.754Z,11.00
2022-11-24T04:41:04.268Z,9.45
2022-11-24T04:42:06.355Z,6.65
2022-11-24T04:43:09.125Z,5.80
2022-11-24T04:44:11.195Z,5.67
2022-11-24T04:45:13.024Z,4.95
2022-11-24T04:46:14.798Z,5.82
2022-11-24T04:47:20.607Z,6.28
2022-11-24T04:48:22.445Z,6.13
2022-11-24T04:49:24.274Z,6.18
2022-11-24T04:50:26.293Z,5.57
2022-11-24T04:51:28.134Z,5.88
2022-11-24T04:52:30.316Z,5.93
2022-11-24T04:53:32.250Z,6.55
2022-11-24T04:54:34.159Z,5.67
2022-11-24T04:55:39.121Z,4.72
2022-11-24T04:56:41.883Z,5.32
2022-11-24T04:57:43.709Z,5.47
2022-11-24T04:58:48.944Z,5.28
2022-11-24T04:59:51.613Z,5.70
2022-11-24T05:00:53.367Z,5.85
2022-11-24T05:01:55.227Z,6.05
2022-11-24T05:02:57.263Z,6.20
2022-11-24T05:03:59.754Z,5.63
2022-11-24T05:05:01.560Z,5.40
2022-11-24T05:06:03.786Z,5.72
2022-11-24T05:07:06.037Z,5.93
2022-11-24T05:08:08.916Z,6.95
2022-11-24T05:09:15.484Z,7.75
2022-11-24T05:10:35.546Z,7.53
2022-11-24T05:11:37.301Z,8.27
2022-11-24T05:12:39.546Z,8.63
2022-11-24T05:13:41.327Z,9.00
2022-11-24T05:14:43.092Z,8.90
2022-11-24T05:15:44.888Z,9.57
2022-11-24T05:16:46.788Z,9.10
2022-11-24T05:17:48.533Z,8.93
2022-11-24T05:18:50.295Z,9.25
2022-11-24T05:19:52.035Z,9.73
2022-11-24T05:20:53.790Z,9.55
2022-11-24T05:21:55.510Z,8.32
2022-11-24T05:23:01.927Z,8.65
2022-11-24T05:24:03.891Z,8.40
2022-11-24T05:25:05.902Z,8.55
2022-11-24T05:26:07.738Z,8.43
2022-11-24T05:27:09.441Z,8.68
2022-11-24T05:28:11.318Z,7.85
2022-11-24T05:29:13.072Z,8.00
2022-11-24T05:30:14.857Z,7.78
2022-11-24T05:31:16.641Z,8.30
2022-11-24T05:32:18.460Z,7.38
2022-11-24T05:33:22.997Z,7.43
2022-11-24T05:34:24.784Z,7.82
2022-11-24T05:35:26.561Z,7.53
2022-11-24T05:36:47.115Z,7.17
2022-11-24T05:37:48.938Z,7.05
2022-11-24T05:38:50.693Z,7.72
2022-11-24T05:39:54.568Z,8.70
2022-11-24T05:41:01.597Z,10.25
2022-11-24T05:42:25.836Z,9.75
2022-11-24T05:43:27.657Z,10.20
2022-11-24T05:44:29.396Z,10.15
2022-11-24T05:45:31.230Z,9.98
2022-11-24T05:46:33.040Z,10.45
2022-11-24T05:47:35.245Z,9.90
2022-11-24T05:48:36.938Z,10.20
2022-11-24T05:49:38.860Z,10.30
2022-11-24T05:50:40.864Z,10.88
2022-11-24T05:51:42.656Z,9.80
2022-11-24T05:52:44.728Z,10.80
2022-11-24T05:53:46.481Z,9.68
2022-11-24T05:54:48.309Z,10.13
2022-11-24T05:55:50.268Z,10.63
2022-11-24T05:56:52.010Z,9.38
2022-11-24T05:57:59.227Z,9.70
2022-11-24T05:59:03.128Z,9.27
2022-11-24T06:00:09.605Z,10.55
2022-11-24T06:01:11.361Z,9.63
2022-11-24T06:02:14.085Z,9.85
2022-11-24T06:03:16.023Z,9.63
2022-11-24T06:04:17.813Z,9.60
2022-11-24T06:05:19.588Z,9.82
2022-11-24T06:06:21.519Z,9.68
2022-11-24T06:07:23.350Z,9.23
2022-11-24T06:08:30.691Z,9.17
2022-11-24T06:09:35.221Z,9.50
2022-11-24T06:10:36.973Z,9.63
2022-11-24T06:11:38.998Z,9.45
2022-11-24T06:12:40.782Z,9.50
2022-11-24T06:13:43.066Z,8.43
2022-11-24T06:14:45.095Z,9.85
2022-11-24T06:15:46.837Z,9.25
2022-11-24T06:16:48.637Z,8.38
2022-11-24T06:17:55.713Z,8.70
2022-11-24T06:18:57.597Z,7.87
2022-11-24T06:19:59.328Z,8.30
2022-11-24T06:21:10.655Z,8.15
2022-11-24T06:22:13.201Z,9.35
2022-11-24T06:23:14.962Z,8.57
2022-11-24T06:24:16.673Z,8.93
2022-11-24T06:25:18.433Z,10.20
2022-11-24T06:26:20.279Z,12.43
2022-11-24T06:27:22.001Z,11.75
2022-11-24T06:28:23.760Z,10.43
2022-11-24T06:29:25.518Z,10.43
2022-11-24T06:30:27.277Z,10.57
2022-11-24T06:31:29.042Z,9.80
2022-11-24T06:32:30.929Z,10.20
2022-11-24T06:33:37.610Z,12.25
2022-11-24T06:34:39.427Z,10.38
2022-11-24T06:35:41.216Z,11.23
2022-11-24T06:36:43.069Z,9.27
2022-11-24T06:37:45.859Z,8.48
2022-11-24T06:38:47.596Z,8.27
2022-11-24T06:39:49.400Z,8.03
2022-11-24T06:40:59.215Z,7.38
2022-11-24T06:42:00.997Z,8.05
2022-11-24T06:43:02.772Z,7.40
2022-11-24T06:44:04.998Z,7.55
2022-11-24T06:45:09.278Z,7.50
2022-11-24T06:46:12.576Z,7.22
2022-11-24T06:47:14.914Z,8.82
2022-11-24T06:48:16.720Z,7.97
2022-11-24T06:49:18.508Z,7.20
2022-11-24T06:50:20.356Z,6.63
2022-11-24T06:51:22.101Z,6.60
2022-11-24T06:52:23.816Z,6.50
2022-11-24T06:53:25.609Z,7.25
2022-11-24T06:54:27.312Z,6.22
2022-11-24T06:55:29.056Z,6.80
2022-11-24T06:56:30.860Z,6.40
2022-11-24T06:57:32.565Z,6.88
2022-11-24T06:58:34.944Z,7.07
2022-11-24T06:59:36.688Z,6.20
2022-11-24T07:00:39.350Z,6.27
2022-11-24T07:01:41.165Z,6.20
2022-11-24T07:02:46.008Z,7.10
2022-11-24T07:03:48.523Z,6.57
2022-11-24T07:04:50.298Z,6.50
2022-11-24T07:05:58.927Z,6.55
2022-11-24T07:07:00.662Z,7.20
2022-11-24T07:08:02.436Z,6.43
2022-11-24T07:09:04.195Z,7.25
2022-11-24T07:10:06.625Z,6.88
2022-11-24T07:11:10.223Z,6.10
2022-11-24T07:12:11.981Z,6.82
2022-11-24T07:13:13.727Z,6.70
2022-11-24T07:14:15.459Z,6.28
2022-11-24T07:15:17.229Z,6.78
2022-11-24T07:16:22.036Z,5.82
2022-11-24T07:17:23.925Z,7.03
2022-11-24T07:18:25.665Z,6.25
2022-11-24T07:19:27.422Z,6.40
2022-11-24T07:20:29.198Z,6.55
2022-11-24T07:21:30.981Z,6.83
2022-11-24T07:22:32.980Z,6.57
2022-11-24T07:23:34.764Z,6.32
2022-11-24T07:24:36.815Z,6.18
2022-11-24T07:25:38.741Z,6.97
2022-11-24T07:26:40.527Z,6.90
2022-11-24T07:27:42.267Z,6.70
2022-11-24T07:28:44.101Z,6.60
2022-11-24T07:29:45.831Z,7.22
2022-11-24T07:30:47.578Z,6.60
2022-11-24T07:31:50.049Z,7.07
2022-11-24T07:32:58.219Z,5.93
2022-11-24T07:33:59.995Z,7.00
2022-11-24T07:35:01.734Z,5.97
2022-11-24T07:36:05.124Z,6.55
2022-11-24T07:37:06.849Z,6.40
2022-11-24T07:38:08.587Z,6.47
2022-11-24T07:39:10.335Z,6.57
2022-11-24T07:40:12.341Z,6.95
2022-11-24T07:41:15.897Z,6.40
2022-11-24T07:42:17.598Z,6.67
2022-11-24T07:43:20.387Z,6.75
2022-11-24T07:44:22.253Z,6.18
2022-11-24T07:45:25.192Z,6.18
2022-11-24T07:46:26.988Z,6.70
2022-11-24T07:47:28.753Z,6.28
2022-11-24T07:48:30.597Z,6.50
2022-11-24T07:49:32.356Z,6.90
2022-11-24T07:50:34.127Z,6.05
2022-11-24T07:51:36.918Z,6.75
2022-11-24T07:52:39.402Z,6.23
2022-11-24T07:53:41.172Z,6.53
2022-11-24T07:54:42.898Z,6.53
2022-11-24T07:55:44.757Z,7.10
2022-11-24T07:56:49.098Z,6.47
2022-11-24T07:57:50.834Z,6.75
2022-11-24T07:58:53.127Z,6.60
2022-11-24T07:59:55.997Z,7.03
2022-11-24T08:00:58.065Z,5.93
2022-11-24T08:01:59.843Z,6.43
2022-11-24T08:03:01.771Z,6.47
2022-11-24T08:04:03.638Z,5.97
2022-11-24T08:05:06.070Z,5.90
2022-11-24T08:06:23.606Z,6.80
2022-11-24T08:07:27.152Z,6.97
2022-11-24T08:08:33.235Z,6.18
2022-11-24T08:09:34.996Z,6.53
2022-11-24T08:10:36.761Z,6.13
2022-11-24T08:11:38.494Z,6.18
2022-11-24T08:12:41.081Z,7.32
2022-11-24T08:13:44.284Z,7.30
2022-11-24T08:14:46.018Z,6.43
2022-11-24T08:15:47.797Z,7.43
2022-11-24T08:16:49.550Z,6.65
2022-11-24T08:17:51.456Z,6.70
2022-11-24T08:18:55.098Z,7.68
2022-11-24T08:19:56.842Z,7.07
2022-11-24T08:20:59.837Z,7.32
2022-11-24T08:22:01.567Z,6.93
2022-11-24T08:23:03.451Z,7.10
2022-11-24T08:24:05.709Z,7.33
2022-11-24T08:25:07.986Z,6.75
2022-11-24T08:26:15.748Z,7.18
2022-11-24T08:27:18.529Z,7.32
2022-11-24T08:28:20.335Z,6.88
2022-11-24T08:29:22.070Z,7.70
2022-11-24T08:30:23.943Z,6.95
2022-11-24T08:31:32.620Z,7.32
2022-11-24T08:32:34.616Z,6.95
2022-11-24T08:33:37.051Z,7.45
2022-11-24T08:34:39.011Z,7.43
2022-11-24T08:35:40.760Z,7.28
2022-11-24T08:36:42.555Z,6.45
2022-11-24T08:37:44.361Z,7.45
2022-11-24T08:38:46.708Z,6.78
2022-11-24T08:39:48.503Z,7.22
2022-11-24T08:40:50.251Z,7.22
2022-11-24T08:41:51.981Z,7.13
2022-11-24T08:42:58.169Z,7.57
2022-11-24T08:43:59.892Z,7.50
2022-11-24T08:45:17.489Z,7.27
2022-11-24T08:46:23.112Z,6.35
2022-11-24T08:47:24.881Z,7.28
2022-11-24T08:48:26.940Z,7.10
2022-11-24T08:49:28.838Z,6.63
2022-11-24T08:50:30.618Z,7.55
2022-11-24T08:51:32.381Z,6.88
2022-11-24T08:52:34.181Z,7.40
2022-11-24T08:53:36.129Z,7.55
2022-11-24T08:54:37.880Z,7.00
2022-11-24T08:55:39.584Z,7.23
2022-11-24T08:56:42.342Z,6.55
2022-11-24T08:57:44.142Z,6.93
2022-11-24T08:58:45.922Z,7.78
2022-11-24T08:59:47.635Z,7.10
2022-11-24T09:00:49.352Z,8.68
2022-11-24T09:01:51.157Z,7.07
2022-11-24T09:02:55.430Z,7.10
2022-11-24T09:03:57.455Z,7.30
2022-11-24T09:04:59.178Z,7.38
2022-11-24T09:06:01.680Z,7.17
2022-11-24T09:07:03.444Z,7.68
2022-11-24T09:08:05.456Z,7.60
2022-11-24T09:09:07.234Z,7.43
2022-11-24T09:10:09.165Z,7.43
2022-11-24T09:11:14.609Z,7.97
2022-11-24T09:12:16.543Z,7.03
2022-11-24T09:13:18.328Z,7.18
2022-11-24T09:14:20.059Z,8.43
2022-11-24T09:15:22.875Z,6.97
2022-11-24T09:16:27.897Z,7.60
2022-11-24T09:17:29.680Z,6.75
2022-11-24T09:18:31.515Z,6.80
2022-11-24T09:19:33.532Z,7.22
2022-11-24T09:20:35.595Z,6.60
2022-11-24T09:21:40.348Z,6.97
2022-11-24T09:22:43.074Z,6.90
2022-11-24T09:23:46.890Z,6.82
2022-11-24T09:24:48.611Z,6.50
2022-11-24T09:25:50.316Z,7.03
2022-11-24T09:26:55.441Z,6.80
2022-11-24T09:27:57.393Z,6.65
2022-11-24T09:29:00.544Z,7.00
2022-11-24T09:30:03.059Z,6.72
2022-11-24T09:31:06.913Z,7.00
2022-11-24T09:32:08.759Z,6.95
2022-11-24T09:33:10.473Z,7.22
2022-11-24T09:34:15.441Z,7.40
2022-11-24T09:35:17.352Z,6.93
2022-11-24T09:36:19.411Z,6.78
2022-11-24T09:37:21.133Z,6.97
2022-11-24T09:38:23.223Z,7.22
2022-11-24T09:39:24.958Z,6.53
2022-11-24T09:40:27.179Z,7.07
2022-11-24T09:42:02.295Z,7.47
2022-11-24T09:43:25.460Z,6.53
2022-11-24T09:45:00.807Z,5.97
2022-11-24T09:46:40.572Z,6.40
2022-11-24T09:47:45.442Z,6.60
2022-11-24T09:48:52.597Z,6.40
2022-11-24T09:50:10.189Z,6.67
2022-11-24T09:51:14.267Z,5.60
2022-11-24T09:52:23.013Z,6.40
2022-11-24T09:53:59.870Z,6.63
2022-11-24T09:55:04.906Z,6.53
2022-11-24T09:56:29.141Z,7.35
2022-11-24T09:57:37.607Z,6.90
2022-11-24T09:59:05.279Z,6.63
2022-11-24T10:00:12.973Z,6.50
2022-11-24T10:01:30.028Z,6.75
2022-11-24T10:02:32.285Z,6.30
2022-11-24T10:03:43.529Z,6.32
2022-11-24T10:04:47.139Z,6.00
2022-11-24T10:05:51.253Z,6.57
2022-11-24T10:07:22.703Z,6.22
2022-11-24T10:08:36.813Z,6.05
2022-11-24T10:09:57.038Z,6.63
2022-11-24T10:11:02.163Z,6.57
2022-11-24T10:12:38.944Z,6.82
2022-11-24T10:13:57.836Z,6.40
2022-11-24T10:15:33.689Z,6.40
2022-11-24T10:16:35.423Z,5.82
2022-11-24T10:17:55.620Z,5.93
2022-11-24T10:19:14.462Z,6.50
2022-11-24T10:21:02.588Z,7.28
2022-11-24T10:22:16.197Z,6.30
2022-11-24T10:23:49.388Z,6.30
2022-11-24T10:25:13.706Z,6.38
2022-11-24T10:26:37.639Z,6.40
2022-11-24T10:27:46.716Z,6.40
2022-11-24T10:28:54.903Z,5.60
2022-11-24T10:29:57.253Z,6.30
2022-11-24T10:31:15.807Z,6.88
2022-11-24T10:32:37.812Z,6.80
2022-11-24T10:33:40.251Z,6.72
2022-11-24T10:34:45.287Z,7.13
2022-11-24T10:35:57.824Z,7.13
2022-11-24T10:37:11.565Z,13.32
2022-11-24T10:38:45.711Z,9.77
2022-11-24T10:40:10.839Z,8.75
2022-11-24T10:41:25.147Z,10.57
2022-11-24T10:42:38.062Z,10.23
2022-11-24T10:43:42.076Z,10.18
2022-11-24T10:44:44.149Z,18.67
2022-11-24T10:45:46.075Z,20.90
2022-11-24T10:46:48.058Z,15.07
2022-11-24T10:47:50.617Z,11.60
2022-11-24T10:49:00.724Z,18.75
2022-11-24T10:50:04.688Z,12.68
2022-11-24T10:51:38.657Z,11.50
2022-11-24T10:52:44.968Z,8.40
2022-11-24T10:53:48.669Z,7.68
2022-11-24T10:54:57.579Z,7.18
2022-11-24T10:56:01.803Z,7.45
2022-11-24T10:57:03.916Z,7.82
2022-11-24T10:58:16.854Z,7.07
2022-11-24T10:59:24.706Z,7.10
2022-11-24T11:00:26.366Z,7.43
2022-11-24T11:01:33.363Z,7.82
2022-11-24T11:02:38.140Z,7.35
2022-11-24T11:03:49.539Z,8.47
2022-11-24T11:04:51.272Z,9.15
2022-11-24T11:05:52.980Z,13.05
2022-11-24T11:07:19.563Z,14.75
2022-11-24T11:08:29.301Z,12.23
2022-11-24T11:09:31.033Z,14.90
2022-11-24T11:10:32.828Z,12.48
2022-11-24T11:11:36.361Z,13.23
2022-11-24T11:12:45.413Z,12.38
2022-11-24T11:14:01.519Z,10.13
2022-11-24T11:15:25.197Z,8.67
2022-11-24T11:16:42.808Z,8.65
2022-11-24T11:17:45.013Z,8.30
2022-11-24T11:18:49.496Z,8.30
2022-11-24T11:20:00.056Z,8.48
2022-11-24T11:21:05.209Z,9.50
2022-11-24T11:22:12.919Z,9.35
2022-11-24T11:23:21.087Z,9.07
2022-11-24T11:24:22.864Z,8.52
2022-11-24T11:25:35.462Z,9.18
2022-11-24T11:26:39.453Z,10.30
2022-11-24T11:27:42.385Z,10.13
2022-11-24T11:34:53.515Z,9.90
2022-11-24T11:35:57.959Z,9.00
2022-11-24T11:37:00.202Z,9.00
2022-11-24T11:38:12.586Z,9.57
2022-11-24T11:39:36.551Z,9.97
2022-11-24T11:40:42.697Z,9.70
2022-11-24T11:41:48.062Z,9.55
2022-11-24T11:43:09.917Z,8.85
2022-11-24T11:44:27.103Z,8.02
2022-11-24T11:45:33.705Z,7.22
2022-11-24T11:46:35.829Z,7.78
2022-11-24T11:47:53.355Z,8.55
2022-11-24T11:48:55.115Z,8.45
2022-11-24T11:49:57.504Z,7.90
2022-11-24T11:51:22.696Z,9.13
2022-11-24T11:53:02.615Z,8.43
2022-11-24T11:54:32.413Z,7.97
2022-11-24T11:56:02.190Z,8.43
2022-11-24T11:57:10.350Z,8.65
2022-11-24T11:58:41.267Z,9.20
2022-11-24T12:00:15.701Z,8.68
2022-11-24T12:01:45.610Z,8.32
2022-11-24T12:03:05.977Z,8.95
2022-11-24T12:04:39.731Z,8.82
2022-11-24T12:06:03.627Z,8.47
2022-11-24T12:07:31.204Z,9.25
2022-11-24T12:09:18.594Z,8.85
2022-11-24T12:10:32.525Z,8.88
2022-11-24T12:11:57.399Z,8.27
2022-11-24T12:13:01.864Z,8.48
2022-11-24T12:14:40.511Z,9.02
2022-11-24T12:15:56.405Z,8.32
2022-11-24T12:17:14.939Z,8.30
2022-11-24T12:18:59.390Z,7.78
2022-11-24T12:20:17.921Z,9.00
2022-11-24T12:21:27.097Z,8.95
2022-11-24T12:22:35.791Z,8.55
2022-11-24T12:24:00.252Z,9.23
2022-11-24T12:25:25.382Z,8.48
2022-11-24T12:26:57.171Z,8.52
2022-11-24T12:28:26.615Z,8.00
2022-11-24T12:29:37.385Z,8.93
2022-11-24T12:30:56.710Z,9.35
2022-11-24T12:32:35.154Z,9.57
2022-11-24T12:33:47.541Z,8.73
2022-11-24T12:34:55.869Z,8.32
2022-11-24T12:36:10.446Z,8.48
2022-11-24T12:37:53.460Z,10.60
2022-11-24T12:39:10.795Z,9.38
2022-11-24T12:40:47.067Z,8.23
2022-11-24T12:42:13.190Z,9.80
2022-11-24T12:43:35.067Z,8.55
2022-11-24T12:44:48.427Z,9.07
2022-11-24T12:45:53.676Z,33.75
2022-11-24T12:47:13.734Z,34.83
2022-11-24T12:48:37.508Z,13.15
2022-11-24T12:49:39.257Z,9.05
2022-11-24T12:50:44.317Z,9.55
2022-11-24T12:52:05.397Z,9.63
2022-11-24T12:53:19.106Z,9.50
2022-11-24T12:54:21.740Z,10.88
2022-11-24T12:55:24.344Z,16.52
2022-11-24T12:56:49.701Z,13.05
2022-11-24T12:58:16.188Z,10.35
2022-11-24T12:59:38.163Z,9.10
2022-11-24T13:01:00.959Z,10.32
2022-11-24T13:02:48.361Z,9.63
2022-11-24T13:04:20.436Z,10.05
2022-11-24T13:05:25.195Z,18.25
2022-11-24T13:06:45.840Z,13.85
2022-11-24T13:07:58.417Z,12.48
2022-11-24T13:09:10.723Z,11.55
2022-11-24T13:10:53.519Z,10.77
2022-11-24T13:11:53.327Z,10.85
2022-11-24T13:13:00.410Z,13.23
2022-11-24T13:14:34.162Z,11.27
2022-11-24T13:17:50.254Z,10.18
2022-11-24T13:19:16.467Z,10.65
2022-11-24T13:20:21.279Z,9.45
2022-11-24T13:21:50.063Z,10.27
2022-11-24T13:22:58.376Z,10.00
2022-11-24T13:24:06.322Z,9.20
2022-11-24T13:25:14.169Z,9.57
2022-11-24T13:26:29.475Z,9.17
2022-11-24T13:27:41.311Z,10.67
2022-11-24T13:29:17.980Z,9.57
2022-11-24T13:30:52.019Z,9.73
2022-11-24T13:31:55.245Z,10.30
2022-11-24T13:33:16.646Z,8.55
2022-11-24T13:34:43.415Z,9.10
2022-11-24T13:36:04.093Z,9.13
2022-11-24T13:37:31.746Z,8.95
2022-11-24T13:38:46.615Z,8.98
2022-11-24T13:39:54.463Z,9.43
2022-11-24T13:41:13.379Z,9.13
2022-11-24T13:42:41.035Z,8.70
2022-11-24T13:44:15.233Z,9.40
2022-11-24T13:45:38.835Z,9.00
2022-11-24T13:47:07.038Z,8.52
2022-11-24T13:48:21.895Z,9.55
2022-11-24T13:49:24.751Z,9.02
2022-11-24T13:50:51.469Z,9.10
2022-11-24T13:52:17.674Z,9.80
2022-11-24T13:53:44.228Z,8.63
2022-11-24T13:54:46.041Z,9.80
2022-11-24T13:56:00.609Z,8.65
2022-11-24T13:57:35.407Z,8.32
2022-11-24T13:58:43.729Z,8.93
2022-11-24T13:59:45.555Z,8.93
2022-11-24T14:01:19.533Z,8.63
2022-11-24T14:02:24.088Z,8.82
2022-11-24T14:03:36.075Z,8.98
2022-11-24T14:04:39.544Z,8.88
2022-11-24T14:05:48.978Z,8.90
2022-11-24T14:06:54.880Z,9.07
2022-11-24T14:07:56.894Z,9.18
2022-11-24T14:09:01.803Z,8.90
2022-11-24T14:10:03.792Z,8.93
2022-11-24T14:11:14.588Z,9.48
2022-11-24T14:12:20.805Z,9.80
2022-11-24T14:13:34.910Z,9.82
2022-11-24T14:14:36.878Z,9.40
2022-11-24T14:15:38.856Z,9.50
2022-11-24T14:16:40.634Z,8.90
2022-11-24T14:17:42.352Z,9.40
2022-11-24T14:18:46.876Z,9.50
2022-11-24T14:19:51.148Z,9.90
2022-11-24T14:20:52.872Z,9.57
2022-11-24T14:21:54.602Z,9.43
2022-11-24T14:22:56.454Z,10.40
2022-11-24T14:24:08.096Z,9.65
2022-11-24T14:25:30.915Z,10.55
2022-11-24T14:26:35.269Z,9.30
2022-11-24T14:27:38.959Z,10.47
2022-11-24T14:28:41.371Z,10.47
2022-11-24T14:30:15.448Z,10.40
2022-11-24T14:31:25.620Z,10.00
2022-11-24T14:32:28.253Z,9.95
2022-11-24T14:33:30.014Z,10.55
2022-11-24T14:34:35.769Z,10.18
2022-11-24T14:35:43.908Z,11.07
2022-11-24T14:36:45.693Z,10.25
2022-11-24T14:37:47.450Z,10.80
2022-11-24T14:38:49.276Z,11.13
2022-11-24T14:39:51.096Z,10.77
2022-11-24T14:40:55.032Z,11.18
2022-11-24T14:42:07.914Z,12.20
2022-11-24T14:43:24.311Z,12.23
2022-11-24T14:44:29.803Z,11.20
2022-11-24T14:45:33.336Z,10.27
2022-11-24T14:46:36.141Z,10.82
2022-11-24T14:47:45.121Z,10.52
2022-11-24T14:48:52.666Z,10.75
2022-11-24T14:49:55.966Z,11.60
2022-11-24T14:51:14.935Z,10.77
2022-11-24T14:52:19.170Z,9.90